sensor_id;sensor_type;location;lat;lon;timestamp;P1;durP1;ratioP1;P2;durP2;ratioP2
75044;SDS011;63614;56.026;35.960;2024-03-23T00:52:07;38.95;;;18.95;;
75044;SDS011;63614;56.026;35.960;2024-03-23T00:54:33;37.97;;;20.75;;
75044;SDS011;63614;56.026;35.960;2024-03-23T00:56:59;47.55;;;22.50;;
75044;SDS011;63614;56.026;35.960;2024-03-23T00:59:25;62.42;;;21.80;;
75044;SDS011;63614;56.026;35.960;2024-03-23T01:01:54;37.83;;;21.98;;
75044;SDS011;63614;56.026;35.960;2024-03-23T01:04:20;40.50;;;20.92;;
75044;SDS011;63614;56.026;35.960;2024-03-23T01:06:46;38.10;;;19.08;;
75044;SDS011;63614;56.026;35.960;2024-03-23T01:09:12;42.17;;;22.73;;
75044;SDS011;63614;56.026;35.960;2024-03-23T01:11:39;49.75;;;22.48;;
75044;SDS011;63614;56.026;35.960;2024-03-23T01:14:05;34.45;;;20.63;;
75044;SDS011;63614;56.026;35.960;2024-03-23T01:16:34;43.03;;;21.25;;
75044;SDS011;63614;56.026;35.960;2024-03-23T01:18:59;36.28;;;21.15;;
75044;SDS011;63614;56.026;35.960;2024-03-23T01:21:25;38.78;;;21.10;;
75044;SDS011;63614;56.026;35.960;2024-03-23T01:23:51;41.03;;;22.33;;
75044;SDS011;63614;56.026;35.960;2024-03-23T01:26:17;44.72;;;23.92;;
75044;SDS011;63614;56.026;35.960;2024-03-23T01:28:43;40.40;;;21.23;;
75044;SDS011;63614;56.026;35.960;2024-03-23T01:31:09;40.85;;;21.90;;
75044;SDS011;63614;56.026;35.960;2024-03-23T01:33:35;35.63;;;18.65;;
75044;SDS011;63614;56.026;35.960;2024-03-23T01:36:01;37.17;;;19.63;;
75044;SDS011;63614;56.026;35.960;2024-03-23T01:38:27;36.03;;;21.08;;
75044;SDS011;63614;56.026;35.960;2024-03-23T01:40:58;47.13;;;22.25;;
75044;SDS011;63614;56.026;35.960;2024-03-23T01:43:24;40.05;;;21.75;;
75044;SDS011;63614;56.026;35.960;2024-03-23T01:45:50;43.65;;;20.85;;
75044;SDS011;63614;56.026;35.960;2024-03-23T01:48:19;36.88;;;19.70;;
75044;SDS011;63614;56.026;35.960;2024-03-23T01:53:11;33.90;;;19.08;;
75044;SDS011;63614;56.026;35.960;2024-03-23T01:55:40;38.50;;;17.30;;
75044;SDS011;63614;56.026;35.960;2024-03-23T01:58:06;31.88;;;18.05;;
75044;SDS011;63614;56.026;35.960;2024-03-23T02:00:32;37.75;;;21.75;;
75044;SDS011;63614;56.026;35.960;2024-03-23T02:02:58;37.92;;;20.83;;
75044;SDS011;63614;56.026;35.960;2024-03-23T02:05:24;33.97;;;20.25;;
75044;SDS011;63614;56.026;35.960;2024-03-23T02:07:50;42.63;;;21.92;;
75044;SDS011;63614;56.026;35.960;2024-03-23T02:10:16;40.20;;;21.48;;
75044;SDS011;63614;56.026;35.960;2024-03-23T02:15:09;39.42;;;21.05;;
75044;SDS011;63614;56.026;35.960;2024-03-23T02:17:35;40.10;;;21.48;;
75044;SDS011;63614;56.026;35.960;2024-03-23T02:20:02;42.55;;;21.80;;
75044;SDS011;63614;56.026;35.960;2024-03-23T02:22:37;35.80;;;21.40;;
75044;SDS011;63614;56.026;35.960;2024-03-23T02:25:04;37.65;;;20.60;;
75044;SDS011;63614;56.026;35.960;2024-03-23T02:27:31;35.47;;;21.63;;
75044;SDS011;63614;56.026;35.960;2024-03-23T02:29:57;38.20;;;20.95;;
75044;SDS011;63614;56.026;35.960;2024-03-23T02:32:23;37.50;;;20.48;;
75044;SDS011;63614;56.026;35.960;2024-03-23T02:34:48;40.33;;;20.88;;
75044;SDS011;63614;56.026;35.960;2024-03-23T02:37:14;40.63;;;20.75;;
75044;SDS011;63614;56.026;35.960;2024-03-23T02:39:40;35.90;;;20.20;;
75044;SDS011;63614;56.026;35.960;2024-03-23T02:42:06;33.75;;;19.27;;
75044;SDS011;63614;56.026;35.960;2024-03-23T02:44:32;38.33;;;21.00;;
75044;SDS011;63614;56.026;35.960;2024-03-23T02:46:57;38.03;;;20.85;;
75044;SDS011;63614;56.026;35.960;2024-03-23T02:49:23;37.15;;;18.67;;
75044;SDS011;63614;56.026;35.960;2024-03-23T02:51:49;37.72;;;19.88;;
75044;SDS011;63614;56.026;35.960;2024-03-23T02:54:15;41.40;;;23.10;;
75044;SDS011;63614;56.026;35.960;2024-03-23T02:56:41;46.75;;;21.77;;
75044;SDS011;63614;56.026;35.960;2024-03-23T02:59:07;38.00;;;20.95;;
75044;SDS011;63614;56.026;35.960;2024-03-23T03:01:33;37.05;;;21.90;;
75044;SDS011;63614;56.026;35.960;2024-03-23T03:04:00;40.03;;;21.33;;
75044;SDS011;63614;56.026;35.960;2024-03-23T03:06:26;43.27;;;22.77;;
75044;SDS011;63614;56.026;35.960;2024-03-23T03:08:52;40.55;;;21.95;;
75044;SDS011;63614;56.026;35.960;2024-03-23T03:11:17;40.33;;;20.27;;
75044;SDS011;63614;56.026;35.960;2024-03-23T03:13:43;39.00;;;16.98;;
75044;SDS011;63614;56.026;35.960;2024-03-23T03:16:12;39.42;;;21.17;;
75044;SDS011;63614;56.026;35.960;2024-03-23T03:18:38;38.83;;;19.13;;
75044;SDS011;63614;56.026;35.960;2024-03-23T03:23:38;37.88;;;19.95;;
75044;SDS011;63614;56.026;35.960;2024-03-23T03:26:05;36.08;;;19.35;;
75044;SDS011;63614;56.026;35.960;2024-03-23T03:28:32;43.58;;;23.98;;
75044;SDS011;63614;56.026;35.960;2024-03-23T03:30:59;49.42;;;23.13;;
75044;SDS011;63614;56.026;35.960;2024-03-23T03:33:28;36.63;;;20.00;;
75044;SDS011;63614;56.026;35.960;2024-03-23T03:35:54;37.72;;;19.25;;
75044;SDS011;63614;56.026;35.960;2024-03-23T03:38:20;43.75;;;23.02;;
75044;SDS011;63614;56.026;35.960;2024-03-23T03:40:46;43.92;;;20.30;;
75044;SDS011;63614;56.026;35.960;2024-03-23T03:43:12;38.55;;;20.00;;
75044;SDS011;63614;56.026;35.960;2024-03-23T03:45:38;53.85;;;24.05;;
75044;SDS011;63614;56.026;35.960;2024-03-23T03:48:04;42.45;;;24.45;;
75044;SDS011;63614;56.026;35.960;2024-03-23T03:50:30;41.17;;;23.35;;
75044;SDS011;63614;56.026;35.960;2024-03-23T03:52:56;44.88;;;23.30;;
75044;SDS011;63614;56.026;35.960;2024-03-23T03:55:22;44.90;;;22.58;;
75044;SDS011;63614;56.026;35.960;2024-03-23T03:57:48;43.03;;;22.50;;
75044;SDS011;63614;56.026;35.960;2024-03-23T04:00:14;41.72;;;23.15;;
75044;SDS011;63614;56.026;35.960;2024-03-23T04:02:41;41.85;;;23.02;;
75044;SDS011;63614;56.026;35.960;2024-03-23T04:05:07;34.72;;;18.85;;
75044;SDS011;63614;56.026;35.960;2024-03-23T04:07:33;47.38;;;23.13;;
75044;SDS011;63614;56.026;35.960;2024-03-23T04:09:59;45.63;;;23.25;;
75044;SDS011;63614;56.026;35.960;2024-03-23T04:12:25;34.40;;;19.02;;
75044;SDS011;63614;56.026;35.960;2024-03-23T04:14:51;42.25;;;21.17;;
75044;SDS011;63614;56.026;35.960;2024-03-23T04:17:17;43.45;;;22.80;;
75044;SDS011;63614;56.026;35.960;2024-03-23T04:19:43;42.33;;;21.98;;
75044;SDS011;63614;56.026;35.960;2024-03-23T04:22:09;45.20;;;21.63;;
75044;SDS011;63614;56.026;35.960;2024-03-23T04:24:35;42.63;;;21.88;;
75044;SDS011;63614;56.026;35.960;2024-03-23T04:27:01;40.35;;;20.75;;
75044;SDS011;63614;56.026;35.960;2024-03-23T04:29:28;31.47;;;16.67;;
75044;SDS011;63614;56.026;35.960;2024-03-23T04:31:54;35.97;;;18.55;;
75044;SDS011;63614;56.026;35.960;2024-03-23T04:34:21;42.42;;;20.40;;
75044;SDS011;63614;56.026;35.960;2024-03-23T04:39:14;43.22;;;20.17;;
75044;SDS011;63614;56.026;35.960;2024-03-23T04:41:40;33.03;;;17.85;;
75044;SDS011;63614;56.026;35.960;2024-03-23T04:44:06;35.42;;;19.75;;
75044;SDS011;63614;56.026;35.960;2024-03-23T04:46:33;34.40;;;19.27;;
75044;SDS011;63614;56.026;35.960;2024-03-23T04:48:58;36.03;;;20.00;;
75044;SDS011;63614;56.026;35.960;2024-03-23T04:51:24;38.67;;;18.67;;
75044;SDS011;63614;56.026;35.960;2024-03-23T04:53:51;32.10;;;17.48;;
75044;SDS011;63614;56.026;35.960;2024-03-23T04:56:17;33.17;;;19.55;;
75044;SDS011;63614;56.026;35.960;2024-03-23T04:58:43;29.98;;;17.67;;
75044;SDS011;63614;56.026;35.960;2024-03-23T05:01:10;28.80;;;16.75;;
75044;SDS011;63614;56.026;35.960;2024-03-23T05:03:37;35.92;;;18.42;;
75044;SDS011;63614;56.026;35.960;2024-03-23T05:06:03;32.60;;;18.17;;
75044;SDS011;63614;56.026;35.960;2024-03-23T05:08:31;28.10;;;17.83;;
75044;SDS011;63614;56.026;35.960;2024-03-23T05:10:57;31.25;;;17.95;;
75044;SDS011;63614;56.026;35.960;2024-03-23T05:13:23;31.77;;;16.67;;
75044;SDS011;63614;56.026;35.960;2024-03-23T05:15:52;27.80;;;16.23;;
75044;SDS011;63614;56.026;35.960;2024-03-23T05:18:21;28.60;;;15.60;;
75044;SDS011;63614;56.026;35.960;2024-03-23T05:20:48;26.25;;;15.43;;
75044;SDS011;63614;56.026;35.960;2024-03-23T05:23:13;24.67;;;14.70;;
75044;SDS011;63614;56.026;35.960;2024-03-23T05:25:40;27.08;;;15.27;;
75044;SDS011;63614;56.026;35.960;2024-03-23T05:28:05;28.27;;;15.15;;
75044;SDS011;63614;56.026;35.960;2024-03-23T05:30:32;22.15;;;13.80;;
75044;SDS011;63614;56.026;35.960;2024-03-23T05:32:58;22.55;;;13.82;;
75044;SDS011;63614;56.026;35.960;2024-03-23T05:35:24;25.80;;;13.70;;
75044;SDS011;63614;56.026;35.960;2024-03-23T05:37:50;20.20;;;13.68;;
75044;SDS011;63614;56.026;35.960;2024-03-23T05:40:17;19.17;;;12.35;;
75044;SDS011;63614;56.026;35.960;2024-03-23T05:42:44;24.10;;;12.90;;
75044;SDS011;63614;56.026;35.960;2024-03-23T05:45:10;19.25;;;12.63;;
75044;SDS011;63614;56.026;35.960;2024-03-23T05:47:36;19.17;;;12.48;;
75044;SDS011;63614;56.026;35.960;2024-03-23T05:50:03;22.92;;;12.60;;
75044;SDS011;63614;56.026;35.960;2024-03-23T05:52:30;19.23;;;11.80;;
75044;SDS011;63614;56.026;35.960;2024-03-23T05:54:57;23.27;;;11.85;;
75044;SDS011;63614;56.026;35.960;2024-03-23T05:57:24;17.35;;;10.52;;
75044;SDS011;63614;56.026;35.960;2024-03-23T05:59:51;22.15;;;10.70;;
75044;SDS011;63614;56.026;35.960;2024-03-23T06:02:17;17.35;;;11.05;;
75044;SDS011;63614;56.026;35.960;2024-03-23T06:04:44;17.15;;;10.32;;
75044;SDS011;63614;56.026;35.960;2024-03-23T06:07:12;19.55;;;10.25;;
75044;SDS011;63614;56.026;35.960;2024-03-23T06:09:40;15.70;;;10.02;;
75044;SDS011;63614;56.026;35.960;2024-03-23T06:12:06;13.30;;;8.73;;
75044;SDS011;63614;56.026;35.960;2024-03-23T06:14:34;15.13;;;9.60;;
75044;SDS011;63614;56.026;35.960;2024-03-23T06:17:00;15.43;;;9.02;;
75044;SDS011;63614;56.026;35.960;2024-03-23T06:19:26;13.23;;;8.10;;
75044;SDS011;63614;56.026;35.960;2024-03-23T06:21:53;12.68;;;8.40;;
75044;SDS011;63614;56.026;35.960;2024-03-23T06:24:22;17.95;;;8.48;;
75044;SDS011;63614;56.026;35.960;2024-03-23T06:26:50;11.85;;;7.72;;
75044;SDS011;63614;56.026;35.960;2024-03-23T06:29:16;12.57;;;7.78;;
75044;SDS011;63614;56.026;35.960;2024-03-23T06:31:42;13.57;;;7.38;;
75044;SDS011;63614;56.026;35.960;2024-03-23T06:34:08;12.88;;;7.40;;
75044;SDS011;63614;56.026;35.960;2024-03-23T06:36:34;13.70;;;7.75;;
75044;SDS011;63614;56.026;35.960;2024-03-23T06:39:00;10.85;;;7.43;;
75044;SDS011;63614;56.026;35.960;2024-03-23T06:41:26;11.98;;;7.65;;
75044;SDS011;63614;56.026;35.960;2024-03-23T06:43:52;13.18;;;7.70;;
75044;SDS011;63614;56.026;35.960;2024-03-23T06:46:17;12.73;;;6.88;;
75044;SDS011;63614;56.026;35.960;2024-03-23T06:48:44;10.63;;;6.82;;
75044;SDS011;63614;56.026;35.960;2024-03-23T06:51:11;9.43;;;6.85;;
75044;SDS011;63614;56.026;35.960;2024-03-23T06:53:37;10.68;;;6.82;;
75044;SDS011;63614;56.026;35.960;2024-03-23T06:56:03;12.60;;;7.72;;
75044;SDS011;63614;56.026;35.960;2024-03-23T06:58:29;10.23;;;6.50;;
75044;SDS011;63614;56.026;35.960;2024-03-23T07:00:55;10.75;;;6.25;;
75044;SDS011;63614;56.026;35.960;2024-03-23T07:03:20;9.95;;;6.65;;
75044;SDS011;63614;56.026;35.960;2024-03-23T07:05:47;13.68;;;6.75;;
75044;SDS011;63614;56.026;35.960;2024-03-23T07:08:13;11.63;;;6.68;;
75044;SDS011;63614;56.026;35.960;2024-03-23T07:10:44;9.23;;;6.55;;
75044;SDS011;63614;56.026;35.960;2024-03-23T07:13:10;11.38;;;6.80;;
75044;SDS011;63614;56.026;35.960;2024-03-23T07:15:35;12.48;;;7.10;;
75044;SDS011;63614;56.026;35.960;2024-03-23T07:18:01;8.80;;;6.28;;
75044;SDS011;63614;56.026;35.960;2024-03-23T07:20:28;9.15;;;5.90;;
75044;SDS011;63614;56.026;35.960;2024-03-23T07:25:21;10.00;;;5.80;;
75044;SDS011;63614;56.026;35.960;2024-03-23T07:27:48;9.05;;;6.05;;
75044;SDS011;63614;56.026;35.960;2024-03-23T07:30:15;8.88;;;5.95;;
75044;SDS011;63614;56.026;35.960;2024-03-23T07:32:44;8.18;;;5.78;;
75044;SDS011;63614;56.026;35.960;2024-03-23T07:35:10;6.75;;;4.82;;
75044;SDS011;63614;56.026;35.960;2024-03-23T07:37:37;11.68;;;5.68;;
75044;SDS011;63614;56.026;35.960;2024-03-23T07:40:02;8.50;;;5.80;;
75044;SDS011;63614;56.026;35.960;2024-03-23T07:42:29;9.57;;;6.07;;
75044;SDS011;63614;56.026;35.960;2024-03-23T07:44:55;7.22;;;5.15;;
75044;SDS011;63614;56.026;35.960;2024-03-23T07:47:22;8.30;;;5.07;;
75044;SDS011;63614;56.026;35.960;2024-03-23T07:49:48;10.02;;;5.85;;
75044;SDS011;63614;56.026;35.960;2024-03-23T07:52:14;8.88;;;5.82;;
75044;SDS011;63614;56.026;35.960;2024-03-23T07:54:40;5.90;;;4.38;;
75044;SDS011;63614;56.026;35.960;2024-03-23T07:57:06;8.35;;;5.25;;
75044;SDS011;63614;56.026;35.960;2024-03-23T07:59:32;8.07;;;5.70;;
75044;SDS011;63614;56.026;35.960;2024-03-23T08:01:59;8.45;;;5.53;;
75044;SDS011;63614;56.026;35.960;2024-03-23T08:04:27;7.77;;;5.30;;
75044;SDS011;63614;56.026;35.960;2024-03-23T08:06:53;8.63;;;5.38;;
75044;SDS011;63614;56.026;35.960;2024-03-23T08:09:19;6.10;;;4.53;;
75044;SDS011;63614;56.026;35.960;2024-03-23T08:11:45;6.07;;;4.30;;
75044;SDS011;63614;56.026;35.960;2024-03-23T08:14:12;6.57;;;4.53;;
75044;SDS011;63614;56.026;35.960;2024-03-23T08:16:38;7.63;;;4.80;;
75044;SDS011;63614;56.026;35.960;2024-03-23T08:19:04;6.35;;;4.68;;
75044;SDS011;63614;56.026;35.960;2024-03-23T08:21:31;6.70;;;4.53;;
75044;SDS011;63614;56.026;35.960;2024-03-23T08:23:57;6.25;;;4.47;;
75044;SDS011;63614;56.026;35.960;2024-03-23T08:26:23;8.73;;;4.70;;
75044;SDS011;63614;56.026;35.960;2024-03-23T08:28:49;5.78;;;4.40;;
75044;SDS011;63614;56.026;35.960;2024-03-23T08:31:14;7.65;;;4.40;;
75044;SDS011;63614;56.026;35.960;2024-03-23T08:33:40;7.20;;;4.28;;
75044;SDS011;63614;56.026;35.960;2024-03-23T08:36:09;5.80;;;4.07;;
75044;SDS011;63614;56.026;35.960;2024-03-23T08:38:40;6.53;;;4.10;;
75044;SDS011;63614;56.026;35.960;2024-03-23T08:41:07;5.60;;;3.78;;
75044;SDS011;63614;56.026;35.960;2024-03-23T08:43:38;5.97;;;4.00;;
75044;SDS011;63614;56.026;35.960;2024-03-23T08:48:35;5.32;;;4.30;;
75044;SDS011;63614;56.026;35.960;2024-03-23T08:51:09;6.65;;;4.55;;
75044;SDS011;63614;56.026;35.960;2024-03-23T08:53:36;6.17;;;4.03;;
75044;SDS011;63614;56.026;35.960;2024-03-23T08:56:03;5.83;;;3.87;;
75044;SDS011;63614;56.026;35.960;2024-03-23T08:58:30;7.50;;;3.90;;
75044;SDS011;63614;56.026;35.960;2024-03-23T09:01:02;5.45;;;3.85;;
75044;SDS011;63614;56.026;35.960;2024-03-23T09:03:29;7.50;;;3.90;;
75044;SDS011;63614;56.026;35.960;2024-03-23T09:05:55;5.45;;;3.65;;
75044;SDS011;63614;56.026;35.960;2024-03-23T09:08:23;6.43;;;4.07;;
75044;SDS011;63614;56.026;35.960;2024-03-23T09:10:49;6.35;;;4.00;;
75044;SDS011;63614;56.026;35.960;2024-03-23T09:13:15;6.38;;;4.03;;
75044;SDS011;63614;56.026;35.960;2024-03-23T09:15:51;8.38;;;4.03;;
75044;SDS011;63614;56.026;35.960;2024-03-23T09:18:21;5.57;;;3.65;;
75044;SDS011;63614;56.026;35.960;2024-03-23T09:20:47;5.50;;;4.03;;
75044;SDS011;63614;56.026;35.960;2024-03-23T09:23:13;5.30;;;3.75;;
75044;SDS011;63614;56.026;35.960;2024-03-23T09:25:39;5.43;;;3.92;;
75044;SDS011;63614;56.026;35.960;2024-03-23T09:28:06;5.97;;;3.92;;
75044;SDS011;63614;56.026;35.960;2024-03-23T09:30:35;5.75;;;3.70;;
75044;SDS011;63614;56.026;35.960;2024-03-23T09:33:08;7.25;;;4.20;;
75044;SDS011;63614;56.026;35.960;2024-03-23T09:35:39;8.18;;;3.80;;
75044;SDS011;63614;56.026;35.960;2024-03-23T09:38:06;7.50;;;4.17;;
75044;SDS011;63614;56.026;35.960;2024-03-23T09:40:41;5.82;;;4.10;;
75044;SDS011;63614;56.026;35.960;2024-03-23T09:43:08;5.88;;;3.97;;
75044;SDS011;63614;56.026;35.960;2024-03-23T09:45:35;6.70;;;3.40;;
75044;SDS011;63614;56.026;35.960;2024-03-23T09:48:06;5.57;;;3.53;;
75044;SDS011;63614;56.026;35.960;2024-03-23T09:50:37;5.72;;;3.58;;
75044;SDS011;63614;56.026;35.960;2024-03-23T09:53:07;5.25;;;3.60;;
75044;SDS011;63614;56.026;35.960;2024-03-23T09:55:35;5.03;;;3.70;;
75044;SDS011;63614;56.026;35.960;2024-03-23T09:58:01;6.63;;;4.00;;
75044;SDS011;63614;56.026;35.960;2024-03-23T10:00:28;5.83;;;3.70;;
75044;SDS011;63614;56.026;35.960;2024-03-23T10:03:00;11.52;;;3.47;;
75044;SDS011;63614;56.026;35.960;2024-03-23T10:05:30;4.93;;;3.35;;
75044;SDS011;63614;56.026;35.960;2024-03-23T10:10:40;6.60;;;3.65;;
75044;SDS011;63614;56.026;35.960;2024-03-23T10:13:06;6.63;;;4.10;;
75044;SDS011;63614;56.026;35.960;2024-03-23T10:15:35;5.88;;;3.88;;
75044;SDS011;63614;56.026;35.960;2024-03-23T10:18:18;5.72;;;3.60;;
75044;SDS011;63614;56.026;35.960;2024-03-23T10:20:51;8.15;;;4.20;;
75044;SDS011;63614;56.026;35.960;2024-03-23T10:23:36;12.32;;;4.85;;
75044;SDS011;63614;56.026;35.960;2024-03-23T10:26:12;6.47;;;3.83;;
75044;SDS011;63614;56.026;35.960;2024-03-23T10:28:52;5.28;;;4.07;;
75044;SDS011;63614;56.026;35.960;2024-03-23T10:31:18;5.50;;;3.85;;
75044;SDS011;63614;56.026;35.960;2024-03-23T10:33:48;6.45;;;4.32;;
75044;SDS011;63614;56.026;35.960;2024-03-23T10:36:15;4.97;;;3.63;;
75044;SDS011;63614;56.026;35.960;2024-03-23T10:38:41;8.23;;;3.92;;
75044;SDS011;63614;56.026;35.960;2024-03-23T10:41:08;6.93;;;3.92;;
75044;SDS011;63614;56.026;35.960;2024-03-23T10:43:38;8.07;;;4.47;;
75044;SDS011;63614;56.026;35.960;2024-03-23T10:46:12;5.25;;;3.60;;
75044;SDS011;63614;56.026;35.960;2024-03-23T10:48:38;5.47;;;4.05;;
75044;SDS011;63614;56.026;35.960;2024-03-23T10:51:08;7.32;;;3.92;;
75044;SDS011;63614;56.026;35.960;2024-03-23T10:53:35;7.22;;;4.15;;
75044;SDS011;63614;56.026;35.960;2024-03-23T10:56:02;6.70;;;4.07;;
75044;SDS011;63614;56.026;35.960;2024-03-23T11:01:06;9.00;;;4.45;;
75044;SDS011;63614;56.026;35.960;2024-03-23T11:03:36;7.25;;;4.32;;
75044;SDS011;63614;56.026;35.960;2024-03-23T11:06:03;7.10;;;4.15;;
75044;SDS011;63614;56.026;35.960;2024-03-23T11:08:34;7.07;;;4.25;;
75044;SDS011;63614;56.026;35.960;2024-03-23T11:13:53;6.47;;;3.97;;
75044;SDS011;63614;56.026;35.960;2024-03-23T11:16:26;5.32;;;3.60;;
75044;SDS011;63614;56.026;35.960;2024-03-23T11:19:33;6.07;;;3.90;;
75044;SDS011;63614;56.026;35.960;2024-03-23T11:22:01;5.90;;;4.18;;
75044;SDS011;63614;56.026;35.960;2024-03-23T11:24:28;6.68;;;3.78;;
75044;SDS011;63614;56.026;35.960;2024-03-23T11:26:54;6.38;;;4.03;;
75044;SDS011;63614;56.026;35.960;2024-03-23T11:29:20;6.50;;;4.07;;
75044;SDS011;63614;56.026;35.960;2024-03-23T11:31:49;7.97;;;3.95;;
75044;SDS011;63614;56.026;35.960;2024-03-23T11:34:16;5.70;;;4.00;;
75044;SDS011;63614;56.026;35.960;2024-03-23T11:36:43;6.35;;;4.00;;
75044;SDS011;63614;56.026;35.960;2024-03-23T11:39:19;6.85;;;4.47;;
75044;SDS011;63614;56.026;35.960;2024-03-23T11:41:49;6.95;;;4.05;;
75044;SDS011;63614;56.026;35.960;2024-03-23T11:44:17;5.60;;;3.83;;
75044;SDS011;63614;56.026;35.960;2024-03-23T11:46:43;10.07;;;3.85;;
75044;SDS011;63614;56.026;35.960;2024-03-23T11:49:19;6.30;;;4.20;;
75044;SDS011;63614;56.026;35.960;2024-03-23T11:51:49;6.85;;;4.28;;
75044;SDS011;63614;56.026;35.960;2024-03-23T11:54:16;7.33;;;4.10;;
75044;SDS011;63614;56.026;35.960;2024-03-23T11:57:04;6.00;;;3.70;;
75044;SDS011;63614;56.026;35.960;2024-03-23T12:02:00;8.85;;;4.38;;
75044;SDS011;63614;56.026;35.960;2024-03-23T12:04:31;7.13;;;4.18;;
75044;SDS011;63614;56.026;35.960;2024-03-23T12:07:13;13.27;;;4.03;;
75044;SDS011;63614;56.026;35.960;2024-03-23T12:09:39;9.25;;;5.20;;
75044;SDS011;63614;56.026;35.960;2024-03-23T12:12:18;8.60;;;4.82;;
75044;SDS011;63614;56.026;35.960;2024-03-23T12:17:10;6.32;;;4.20;;
75044;SDS011;63614;56.026;35.960;2024-03-23T12:19:40;7.10;;;3.90;;
75044;SDS011;63614;56.026;35.960;2024-03-23T12:22:07;6.93;;;3.83;;
75044;SDS011;63614;56.026;35.960;2024-03-23T12:24:34;5.97;;;4.28;;
75044;SDS011;63614;56.026;35.960;2024-03-23T12:27:02;9.82;;;4.35;;
75044;SDS011;63614;56.026;35.960;2024-03-23T12:29:29;8.32;;;4.40;;
75044;SDS011;63614;56.026;35.960;2024-03-23T12:31:56;6.18;;;4.40;;
75044;SDS011;63614;56.026;35.960;2024-03-23T12:34:26;6.05;;;3.90;;
75044;SDS011;63614;56.026;35.960;2024-03-23T12:36:52;7.07;;;4.60;;
75044;SDS011;63614;56.026;35.960;2024-03-23T12:39:18;9.73;;;4.43;;
75044;SDS011;63614;56.026;35.960;2024-03-23T12:41:47;8.55;;;4.07;;
75044;SDS011;63614;56.026;35.960;2024-03-23T12:44:13;9.07;;;4.78;;
75044;SDS011;63614;56.026;35.960;2024-03-23T12:46:43;6.88;;;4.13;;
75044;SDS011;63614;56.026;35.960;2024-03-23T12:49:10;5.95;;;4.00;;
75044;SDS011;63614;56.026;35.960;2024-03-23T12:54:04;7.63;;;4.32;;
75044;SDS011;63614;56.026;35.960;2024-03-23T12:56:30;5.93;;;4.15;;
75044;SDS011;63614;56.026;35.960;2024-03-23T12:58:56;8.27;;;3.80;;
75044;SDS011;63614;56.026;35.960;2024-03-23T13:01:23;6.07;;;3.88;;
75044;SDS011;63614;56.026;35.960;2024-03-23T13:03:50;6.28;;;4.05;;
75044;SDS011;63614;56.026;35.960;2024-03-23T13:06:16;6.43;;;4.55;;
75044;SDS011;63614;56.026;35.960;2024-03-23T13:08:44;6.15;;;4.22;;
75044;SDS011;63614;56.026;35.960;2024-03-23T13:11:15;5.65;;;3.85;;
75044;SDS011;63614;56.026;35.960;2024-03-23T13:13:41;5.93;;;4.03;;
75044;SDS011;63614;56.026;35.960;2024-03-23T13:16:07;5.95;;;3.88;;
75044;SDS011;63614;56.026;35.960;2024-03-23T13:18:34;7.00;;;4.23;;
75044;SDS011;63614;56.026;35.960;2024-03-23T13:21:00;6.15;;;4.07;;
75044;SDS011;63614;56.026;35.960;2024-03-23T13:23:26;7.78;;;3.80;;
75044;SDS011;63614;56.026;35.960;2024-03-23T13:25:52;8.35;;;3.92;;
75044;SDS011;63614;56.026;35.960;2024-03-23T13:28:19;4.63;;;3.67;;
75044;SDS011;63614;56.026;35.960;2024-03-23T13:30:55;7.07;;;3.80;;
75044;SDS011;63614;56.026;35.960;2024-03-23T13:33:23;6.43;;;3.87;;
75044;SDS011;63614;56.026;35.960;2024-03-23T13:35:52;6.47;;;4.18;;
75044;SDS011;63614;56.026;35.960;2024-03-23T13:38:20;6.57;;;3.85;;
75044;SDS011;63614;56.026;35.960;2024-03-23T13:41:04;4.87;;;3.40;;
75044;SDS011;63614;56.026;35.960;2024-03-23T13:43:32;5.40;;;3.70;;
75044;SDS011;63614;56.026;35.960;2024-03-23T13:45:58;5.15;;;3.20;;
75044;SDS011;63614;56.026;35.960;2024-03-23T13:48:25;5.03;;;3.28;;
75044;SDS011;63614;56.026;35.960;2024-03-23T13:50:58;6.13;;;3.55;;
75044;SDS011;63614;56.026;35.960;2024-03-23T13:53:24;9.15;;;3.42;;
75044;SDS011;63614;56.026;35.960;2024-03-23T13:55:50;5.60;;;3.20;;
75044;SDS011;63614;56.026;35.960;2024-03-23T13:58:16;5.18;;;3.25;;
75044;SDS011;63614;56.026;35.960;2024-03-23T14:00:42;7.30;;;3.42;;
75044;SDS011;63614;56.026;35.960;2024-03-23T14:03:09;5.88;;;3.83;;
75044;SDS011;63614;56.026;35.960;2024-03-23T14:05:38;6.20;;;3.20;;
75044;SDS011;63614;56.026;35.960;2024-03-23T14:08:05;5.45;;;3.30;;
75044;SDS011;63614;56.026;35.960;2024-03-23T14:10:35;3.95;;;2.80;;
75044;SDS011;63614;56.026;35.960;2024-03-23T14:13:02;6.70;;;3.40;;
75044;SDS011;63614;56.026;35.960;2024-03-23T14:15:31;4.57;;;3.08;;
75044;SDS011;63614;56.026;35.960;2024-03-23T14:17:57;5.13;;;3.50;;
75044;SDS011;63614;56.026;35.960;2024-03-23T14:20:24;4.65;;;3.20;;
75044;SDS011;63614;56.026;35.960;2024-03-23T14:22:52;7.20;;;3.60;;
75044;SDS011;63614;56.026;35.960;2024-03-23T14:25:18;10.17;;;3.43;;
75044;SDS011;63614;56.026;35.960;2024-03-23T14:27:44;23.45;;;4.07;;
75044;SDS011;63614;56.026;35.960;2024-03-23T14:30:11;14.25;;;3.78;;
75044;SDS011;63614;56.026;35.960;2024-03-23T14:32:38;16.20;;;3.80;;
75044;SDS011;63614;56.026;35.960;2024-03-23T14:35:04;8.40;;;3.65;;
75044;SDS011;63614;56.026;35.960;2024-03-23T14:37:31;11.30;;;3.58;;
75044;SDS011;63614;56.026;35.960;2024-03-23T14:39:57;5.13;;;2.88;;
75044;SDS011;63614;56.026;35.960;2024-03-23T14:42:24;6.35;;;3.20;;
75044;SDS011;63614;56.026;35.960;2024-03-23T14:44:50;6.20;;;2.95;;
75044;SDS011;63614;56.026;35.960;2024-03-23T14:47:17;5.38;;;2.80;;
75044;SDS011;63614;56.026;35.960;2024-03-23T14:49:43;4.97;;;2.92;;
75044;SDS011;63614;56.026;35.960;2024-03-23T14:52:13;4.88;;;2.70;;
75044;SDS011;63614;56.026;35.960;2024-03-23T14:54:39;5.22;;;2.58;;
75044;SDS011;63614;56.026;35.960;2024-03-23T14:57:05;4.75;;;3.10;;
75044;SDS011;63614;56.026;35.960;2024-03-23T14:59:37;7.20;;;3.00;;
75044;SDS011;63614;56.026;35.960;2024-03-23T15:02:04;6.75;;;3.10;;
75044;SDS011;63614;56.026;35.960;2024-03-23T15:04:31;6.03;;;3.17;;
75044;SDS011;63614;56.026;35.960;2024-03-23T15:06:57;4.57;;;2.80;;
75044;SDS011;63614;56.026;35.960;2024-03-23T15:09:23;6.90;;;2.65;;
75044;SDS011;63614;56.026;35.960;2024-03-23T15:11:49;7.30;;;2.65;;
75044;SDS011;63614;56.026;35.960;2024-03-23T15:14:15;4.75;;;2.95;;
75044;SDS011;63614;56.026;35.960;2024-03-23T15:16:41;6.70;;;3.00;;
75044;SDS011;63614;56.026;35.960;2024-03-23T15:19:08;3.93;;;2.70;;
75044;SDS011;63614;56.026;35.960;2024-03-23T15:21:34;7.53;;;3.13;;
75044;SDS011;63614;56.026;35.960;2024-03-23T15:24:00;12.75;;;3.85;;
75044;SDS011;63614;56.026;35.960;2024-03-23T15:26:26;12.77;;;4.07;;
75044;SDS011;63614;56.026;35.960;2024-03-23T15:28:52;10.90;;;4.30;;
75044;SDS011;63614;56.026;35.960;2024-03-23T15:31:24;13.35;;;4.45;;
75044;SDS011;63614;56.026;35.960;2024-03-23T15:33:51;15.80;;;4.70;;
75044;SDS011;63614;56.026;35.960;2024-03-23T15:36:17;16.67;;;4.10;;
75044;SDS011;63614;56.026;35.960;2024-03-23T15:38:43;14.43;;;5.47;;
75044;SDS011;63614;56.026;35.960;2024-03-23T15:41:10;9.82;;;5.15;;
75044;SDS011;63614;56.026;35.960;2024-03-23T15:43:36;6.78;;;3.92;;
75044;SDS011;63614;56.026;35.960;2024-03-23T15:46:04;10.90;;;4.60;;